sensor_id;sensor_type;location;lat;lon;timestamp;pressure;altitude;pressure_sealevel;temperature;humidity
59168;BME280;70412;55.048;73.268;2024-02-21T00:02:56;103254.03;;;-27.60;78.53
59168;BME280;70412;55.048;73.268;2024-02-21T00:06:01;103246.94;;;-27.64;79.04
59168;BME280;70412;55.048;73.268;2024-02-21T00:09:04;103256.91;;;-27.69;78.85
59168;BME280;70412;55.048;73.268;2024-02-21T00:12:25;103200.84;;;-28.03;79.29
59168;BME280;70412;55.048;73.268;2024-02-21T00:15:27;103199.34;;;-28.08;79.01
59168;BME280;70412;55.048;73.268;2024-02-21T00:18:30;103249.50;;;-27.82;79.20
59168;BME280;70412;55.048;73.268;2024-02-21T00:21:35;103242.41;;;-27.86;79.54
59168;BME280;70412;55.048;73.268;2024-02-21T00:24:37;103247.75;;;-27.83;79.51
59168;BME280;70412;55.048;73.268;2024-02-21T00:27:40;103249.50;;;-27.82;79.58
59168;BME280;70412;55.048;73.268;2024-02-21T00:30:43;103242.88;;;-27.89;79.04
59168;BME280;70412;55.048;73.268;2024-02-21T00:33:46;103241.59;;;-27.92;79.75
59168;BME280;70412;55.048;73.268;2024-02-21T00:36:50;103240.34;;;-27.96;79.56
59168;BME280;70412;55.048;73.268;2024-02-21T00:39:56;103232.38;;;-28.00;79.70
59168;BME280;70412;55.048;73.268;2024-02-21T00:42:58;103227.94;;;-28.03;79.66
59168;BME280;70412;55.048;73.268;2024-02-21T00:46:01;103215.22;;;-28.06;79.92
59168;BME280;70412;55.048;73.268;2024-02-21T00:49:04;103234.22;;;-28.05;79.18
59168;BME280;70412;55.048;73.268;2024-02-21T00:52:07;103234.72;;;-28.07;79.53
59168;BME280;70412;55.048;73.268;2024-02-21T00:55:10;103232.94;;;-28.08;79.74
59168;BME280;70412;55.048;73.268;2024-02-21T00:58:13;103198.44;;;-28.34;79.70
59168;BME280;70412;55.048;73.268;2024-02-21T01:01:24;103229.59;;;-28.09;79.83
59168;BME280;70412;55.048;73.268;2024-02-21T01:04:27;103220.81;;;-28.07;80.12
59168;BME280;70412;55.048;73.268;2024-02-21T01:07:29;103222.59;;;-28.06;80.23
59168;BME280;70412;55.048;73.268;2024-02-21T01:10:32;103223.97;;;-28.08;79.81
59168;BME280;70412;55.048;73.268;2024-02-21T01:13:35;103223.09;;;-28.08;80.41
59168;BME280;70412;55.048;73.268;2024-02-21T01:16:37;103213.25;;;-28.08;80.35
59168;BME280;70412;55.048;73.268;2024-02-21T01:19:40;103199.63;;;-28.25;79.83
59168;BME280;70412;55.048;73.268;2024-02-21T01:22:42;103191.16;;;-28.27;80.07
59168;BME280;70412;55.048;73.268;2024-02-21T01:25:45;103205.16;;;-28.20;80.00
59168;BME280;70412;55.048;73.268;2024-02-21T01:28:48;103218.84;;;-28.22;80.39
59168;BME280;70412;55.048;73.268;2024-02-21T01:31:50;103210.88;;;-28.27;80.88
59168;BME280;70412;55.048;73.268;2024-02-21T01:34:53;103204.66;;;-28.30;80.49
59168;BME280;70412;55.048;73.268;2024-02-21T01:37:58;103211.66;;;-28.33;80.29
59168;BME280;70412;55.048;73.268;2024-02-21T01:41:01;103171.00;;;-28.55;80.81
59168;BME280;70412;55.048;73.268;2024-02-21T01:44:04;103203.66;;;-28.25;80.74
59168;BME280;70412;55.048;73.268;2024-02-21T01:47:06;103208.19;;;-28.28;80.72
59168;BME280;70412;55.048;73.268;2024-02-21T01:50:10;103207.13;;;-28.30;81.00
59168;BME280;70412;55.048;73.268;2024-02-21T01:53:16;103193.22;;;-28.30;81.24
59168;BME280;70412;55.048;73.268;2024-02-21T01:56:21;103197.47;;;-28.29;80.83
59168;BME280;70412;55.048;73.268;2024-02-21T01:59:24;103200.41;;;-28.31;80.48
59168;BME280;70412;55.048;73.268;2024-02-21T02:02:27;103201.13;;;-28.32;81.67
59168;BME280;70412;55.048;73.268;2024-02-21T02:05:30;103194.81;;;-28.30;80.76
59168;BME280;70412;55.048;73.268;2024-02-21T02:08:33;103204.94;;;-28.34;80.94
59168;BME280;70412;55.048;73.268;2024-02-21T02:11:48;103201.19;;;-28.38;81.15
59168;BME280;70412;55.048;73.268;2024-02-21T02:14:59;103202.75;;;-28.38;81.38
59168;BME280;70412;55.048;73.268;2024-02-21T02:18:01;103190.84;;;-28.48;81.24
59168;BME280;70412;55.048;73.268;2024-02-21T02:21:13;103210.06;;;-28.33;81.28
59168;BME280;70412;55.048;73.268;2024-02-21T02:24:20;103191.66;;;-28.29;81.47
59168;BME280;70412;55.048;73.268;2024-02-21T02:27:42;103193.50;;;-28.21;81.65
59168;BME280;70412;55.048;73.268;2024-02-21T02:30:46;103189.69;;;-28.19;81.13
59168;BME280;70412;55.048;73.268;2024-02-21T02:33:49;103184.56;;;-28.08;81.51
59168;BME280;70412;55.048;73.268;2024-02-21T02:36:52;103187.81;;;-28.02;81.54
59168;BME280;70412;55.048;73.268;2024-02-21T02:39:59;103187.75;;;-27.89;81.38
59168;BME280;70412;55.048;73.268;2024-02-21T02:43:02;103172.97;;;-27.89;81.59
59168;BME280;70412;55.048;73.268;2024-02-21T02:46:05;103198.50;;;-27.63;81.85
59168;BME280;70412;55.048;73.268;2024-02-21T02:49:08;103187.13;;;-27.56;81.39
59168;BME280;70412;55.048;73.268;2024-02-21T02:52:10;103193.09;;;-27.41;81.36
59168;BME280;70412;55.048;73.268;2024-02-21T02:55:13;103206.28;;;-27.28;81.03
59168;BME280;70412;55.048;73.268;2024-02-21T02:58:15;103194.41;;;-27.17;81.01
59168;BME280;70412;55.048;73.268;2024-02-21T03:01:18;103197.22;;;-27.02;80.84
59168;BME280;70412;55.048;73.268;2024-02-21T03:04:21;103196.94;;;-26.90;80.40
59168;BME280;70412;55.048;73.268;2024-02-21T03:07:25;103161.13;;;-26.94;81.04
59168;BME280;70412;55.048;73.268;2024-02-21T03:10:27;103171.88;;;-26.74;80.58
59168;BME280;70412;55.048;73.268;2024-02-21T03:13:30;103195.91;;;-26.46;80.16
59168;BME280;70412;55.048;73.268;2024-02-21T03:16:32;103194.78;;;-26.28;80.43
59168;BME280;70412;55.048;73.268;2024-02-21T03:19:48;103181.47;;;-26.09;80.73
59168;BME280;70412;55.048;73.268;2024-02-21T03:22:51;103190.72;;;-25.93;79.90
59168;BME280;70412;55.048;73.268;2024-02-21T03:25:54;103187.63;;;-25.78;79.49
59168;BME280;70412;55.048;73.268;2024-02-21T03:28:56;103179.22;;;-25.59;79.21
59168;BME280;70412;55.048;73.268;2024-02-21T03:32:00;103182.47;;;-25.46;79.23
59168;BME280;70412;55.048;73.268;2024-02-21T03:35:02;103184.59;;;-25.27;78.57
59168;BME280;70412;55.048;73.268;2024-02-21T03:38:05;103186.25;;;-25.06;78.63
59168;BME280;70412;55.048;73.268;2024-02-21T03:41:07;103182.03;;;-24.93;77.74
59168;BME280;70412;55.048;73.268;2024-02-21T03:44:10;103168.03;;;-24.71;78.18
59168;BME280;70412;55.048;73.268;2024-02-21T03:47:12;103142.75;;;-24.76;77.17
59168;BME280;70412;55.048;73.268;2024-02-21T03:50:15;103170.50;;;-24.43;76.81
59168;BME280;70412;55.048;73.268;2024-02-21T03:53:29;103180.38;;;-24.22;76.50
59168;BME280;70412;55.048;73.268;2024-02-21T03:56:32;103163.38;;;-24.11;75.11
59168;BME280;70412;55.048;73.268;2024-02-21T03:59:34;103161.56;;;-23.98;74.92
59168;BME280;70412;55.048;73.268;2024-02-21T04:02:37;103101.34;;;-24.11;74.13
59168;BME280;70412;55.048;73.268;2024-02-21T04:05:39;103157.72;;;-23.66;74.23
59168;BME280;70412;55.048;73.268;2024-02-21T04:08:42;103155.31;;;-23.50;72.76
59168;BME280;70412;55.048;73.268;2024-02-21T04:11:45;103136.34;;;-23.50;71.33
59168;BME280;70412;55.048;73.268;2024-02-21T04:14:47;103153.94;;;-23.26;71.89
59168;BME280;70412;55.048;73.268;2024-02-21T04:17:49;103149.63;;;-23.12;71.06
59168;BME280;70412;55.048;73.268;2024-02-21T04:20:52;103156.06;;;-22.99;70.38
59168;BME280;70412;55.048;73.268;2024-02-21T04:23:55;103157.22;;;-22.88;70.06
59168;BME280;70412;55.048;73.268;2024-02-21T04:26:57;103140.69;;;-22.87;69.78
59168;BME280;70412;55.048;73.268;2024-02-21T04:30:18;103152.91;;;-22.59;69.02
59168;BME280;70412;55.048;73.268;2024-02-21T04:33:21;103151.34;;;-22.43;68.16
59168;BME280;70412;55.048;73.268;2024-02-21T04:36:23;103098.47;;;-22.49;68.41
59168;BME280;70412;55.048;73.268;2024-02-21T04:39:26;103142.50;;;-22.16;67.93
59168;BME280;70412;55.048;73.268;2024-02-21T04:42:40;103134.41;;;-21.91;67.56
59168;BME280;70412;55.048;73.268;2024-02-21T04:45:45;103114.19;;;-21.94;67.59
59168;BME280;70412;55.048;73.268;2024-02-21T04:48:48;103139.44;;;-21.51;67.25
59168;BME280;70412;55.048;73.268;2024-02-21T04:51:50;103145.38;;;-21.33;66.85
59168;BME280;70412;55.048;73.268;2024-02-21T04:54:55;103135.75;;;-21.05;66.79
59168;BME280;70412;55.048;73.268;2024-02-21T04:57:58;103138.34;;;-20.88;65.86
59168;BME280;70412;55.048;73.268;2024-02-21T05:01:00;103133.66;;;-20.85;65.33
59168;BME280;70412;55.048;73.268;2024-02-21T05:04:03;103129.63;;;-20.67;65.59
59168;BME280;70412;55.048;73.268;2024-02-21T05:07:06;103129.66;;;-20.50;65.14
59168;BME280;70412;55.048;73.268;2024-02-21T05:10:08;103129.41;;;-20.36;64.90
59168;BME280;70412;55.048;73.268;2024-02-21T05:13:11;103122.75;;;-20.11;64.83
59168;BME280;70412;55.048;73.268;2024-02-21T05:16:17;103124.66;;;-19.82;63.78
59168;BME280;70412;55.048;73.268;2024-02-21T05:19:21;103121.00;;;-19.95;62.50
59168;BME280;70412;55.048;73.268;2024-02-21T05:22:23;103119.78;;;-20.07;62.26
59168;BME280;70412;55.048;73.268;2024-02-21T05:25:38;103122.91;;;-19.83;62.97
59168;BME280;70412;55.048;73.268;2024-02-21T05:28:41;103115.69;;;-19.46;63.29
59168;BME280;70412;55.048;73.268;2024-02-21T05:32:03;103103.56;;;-19.33;61.67
59168;BME280;70412;55.048;73.268;2024-02-21T05:35:06;103111.50;;;-19.11;62.40
59168;BME280;70412;55.048;73.268;2024-02-21T05:38:09;103106.03;;;-19.15;61.33
59168;BME280;70412;55.048;73.268;2024-02-21T05:41:13;103107.81;;;-19.14;61.19
59168;BME280;70412;55.048;73.268;2024-02-21T05:44:16;103103.19;;;-18.92;61.12
59168;BME280;70412;55.048;73.268;2024-02-21T05:47:19;103106.94;;;-18.70;60.29
59168;BME280;70412;55.048;73.268;2024-02-21T05:50:22;103106.56;;;-18.65;60.78
59168;BME280;70412;55.048;73.268;2024-02-21T05:53:25;103108.78;;;-18.59;60.29
59168;BME280;70412;55.048;73.268;2024-02-21T05:56:28;103108.66;;;-18.60;59.73
59168;BME280;70412;55.048;73.268;2024-02-21T05:59:31;103084.06;;;-18.92;59.87
59168;BME280;70412;55.048;73.268;2024-02-21T06:02:33;103101.81;;;-18.80;59.18
59168;BME280;70412;55.048;73.268;2024-02-21T06:05:39;103105.44;;;-18.96;58.84
59168;BME280;70412;55.048;73.268;2024-02-21T06:08:54;103113.34;;;-18.91;59.55
59168;BME280;70412;55.048;73.268;2024-02-21T06:11:57;103114.44;;;-19.06;59.14
59168;BME280;70412;55.048;73.268;2024-02-21T06:15:00;103075.94;;;-19.26;59.81
59168;BME280;70412;55.048;73.268;2024-02-21T06:18:02;103106.50;;;-19.11;59.14
59168;BME280;70412;55.048;73.268;2024-02-21T06:21:05;103105.25;;;-18.97;59.64
59168;BME280;70412;55.048;73.268;2024-02-21T06:24:08;103095.91;;;-19.08;59.36
59168;BME280;70412;55.048;73.268;2024-02-21T06:27:11;103093.84;;;-19.12;59.44
59168;BME280;70412;55.048;73.268;2024-02-21T06:30:16;103097.81;;;-19.14;59.25
59168;BME280;70412;55.048;73.268;2024-02-21T06:33:19;103055.75;;;-19.18;59.56
59168;BME280;70412;55.048;73.268;2024-02-21T06:36:26;103093.44;;;-18.81;59.22
59168;BME280;70412;55.048;73.268;2024-02-21T06:39:41;103102.59;;;-18.90;59.03
59168;BME280;70412;55.048;73.268;2024-02-21T06:42:44;103087.31;;;-18.93;58.70
59168;BME280;70412;55.048;73.268;2024-02-21T06:45:47;103098.94;;;-18.93;59.00
59168;BME280;70412;55.048;73.268;2024-02-21T06:48:52;103087.88;;;-18.87;59.17
59168;BME280;70412;55.048;73.268;2024-02-21T06:51:55;103099.19;;;-18.54;59.81
59168;BME280;70412;55.048;73.268;2024-02-21T06:54:57;103105.78;;;-18.46;58.78
59168;BME280;70412;55.048;73.268;2024-02-21T06:58:03;103100.84;;;-18.36;58.30
59168;BME280;70412;55.048;73.268;2024-02-21T07:01:06;103063.66;;;-18.69;57.96
59168;BME280;70412;55.048;73.268;2024-02-21T07:04:08;103094.19;;;-18.54;57.59
59168;BME280;70412;55.048;73.268;2024-02-21T07:07:11;103085.50;;;-18.58;57.85
59168;BME280;70412;55.048;73.268;2024-02-21T07:10:16;103075.53;;;-18.67;57.52
59168;BME280;70412;55.048;73.268;2024-02-21T07:13:19;103044.66;;;-19.03;57.53
59168;BME280;70412;55.048;73.268;2024-02-21T07:16:24;103080.44;;;-18.49;58.29
59168;BME280;70412;55.048;73.268;2024-02-21T07:19:39;103070.16;;;-18.25;57.84
59168;BME280;70412;55.048;73.268;2024-02-21T07:22:41;103072.19;;;-18.21;57.20
59168;BME280;70412;55.048;73.268;2024-02-21T07:25:44;103068.53;;;-18.24;57.39
59168;BME280;70412;55.048;73.268;2024-02-21T07:28:46;103074.69;;;-18.21;57.38
59168;BME280;70412;55.048;73.268;2024-02-21T07:32:02;103079.81;;;-18.19;57.26
59168;BME280;70412;55.048;73.268;2024-02-21T07:35:20;103071.19;;;-18.04;57.45
59168;BME280;70412;55.048;73.268;2024-02-21T07:38:22;103067.66;;;-18.06;57.58
59168;BME280;70412;55.048;73.268;2024-02-21T07:41:25;103062.59;;;-17.79;57.91
59168;BME280;70412;55.048;73.268;2024-02-21T07:44:28;103057.53;;;-17.60;56.92
59168;BME280;70412;55.048;73.268;2024-02-21T07:47:31;103058.91;;;-17.82;56.81
59168;BME280;70412;55.048;73.268;2024-02-21T07:50:33;103054.03;;;-17.99;56.96
59168;BME280;70412;55.048;73.268;2024-02-21T07:53:50;103065.78;;;-17.90;56.85
59168;BME280;70412;55.048;73.268;2024-02-21T07:56:53;103056.22;;;-17.94;56.78
59168;BME280;70412;55.048;73.268;2024-02-21T07:59:55;103059.72;;;-17.73;57.30
59168;BME280;70412;55.048;73.268;2024-02-21T08:02:58;103044.97;;;-17.60;56.81
59168;BME280;70412;55.048;73.268;2024-02-21T08:06:01;103048.09;;;-17.62;56.15
59168;BME280;70412;55.048;73.268;2024-02-21T08:09:03;103052.59;;;-17.68;56.36
59168;BME280;70412;55.048;73.268;2024-02-21T08:12:06;103049.78;;;-17.53;56.79
59168;BME280;70412;55.048;73.268;2024-02-21T08:15:10;103049.13;;;-17.60;56.22
59168;BME280;70412;55.048;73.268;2024-02-21T08:18:14;103055.13;;;-17.87;55.65
59168;BME280;70412;55.048;73.268;2024-02-21T08:21:16;103061.81;;;-17.96;55.82
59168;BME280;70412;55.048;73.268;2024-02-21T08:24:19;103058.38;;;-17.88;55.96
59168;BME280;70412;55.048;73.268;2024-02-21T08:27:24;103052.34;;;-17.71;55.78
59168;BME280;70412;55.048;73.268;2024-02-21T08:30:27;103046.19;;;-17.75;55.69
59168;BME280;70412;55.048;73.268;2024-02-21T08:33:29;103057.25;;;-17.92;55.03
59168;BME280;70412;55.048;73.268;2024-02-21T08:36:34;103049.16;;;-18.17;55.09
59168;BME280;70412;55.048;73.268;2024-02-21T08:39:37;103034.13;;;-18.17;55.29
59168;BME280;70412;55.048;73.268;2024-02-21T08:42:40;103013.06;;;-18.19;55.08
59168;BME280;70412;55.048;73.268;2024-02-21T08:45:43;103039.47;;;-17.85;55.55
59168;BME280;70412;55.048;73.268;2024-02-21T08:48:45;103030.28;;;-17.76;55.32
59168;BME280;70412;55.048;73.268;2024-02-21T08:51:48;103032.28;;;-17.43;55.49
59168;BME280;70412;55.048;73.268;2024-02-21T08:54:51;103040.19;;;-17.38;54.63
59168;BME280;70412;55.048;73.268;2024-02-21T08:57:55;103040.88;;;-17.49;54.36
59168;BME280;70412;55.048;73.268;2024-02-21T09:00:58;103026.44;;;-17.52;53.83
59168;BME280;70412;55.048;73.268;2024-02-21T09:04:00;103033.47;;;-17.48;54.67
59168;BME280;70412;55.048;73.268;2024-02-21T09:07:04;103035.22;;;-17.57;53.74
59168;BME280;70412;55.048;73.268;2024-02-21T09:10:26;103040.69;;;-17.71;54.11
59168;BME280;70412;55.048;73.268;2024-02-21T09:13:28;103039.59;;;-17.83;54.49
59168;BME280;70412;55.048;73.268;2024-02-21T09:16:32;103034.41;;;-17.76;54.29
59168;BME280;70412;55.048;73.268;2024-02-21T09:19:35;102998.50;;;-17.85;54.28
59168;BME280;70412;55.048;73.268;2024-02-21T09:22:38;103010.22;;;-17.76;54.05
59168;BME280;70412;55.048;73.268;2024-02-21T09:25:41;103028.09;;;-17.81;54.01
59168;BME280;70412;55.048;73.268;2024-02-21T09:28:44;103030.94;;;-17.87;54.10
59168;BME280;70412;55.048;73.268;2024-02-21T09:32:00;102994.31;;;-17.95;54.07
59168;BME280;70412;55.048;73.268;2024-02-21T09:35:05;103038.94;;;-17.91;53.66
59168;BME280;70412;55.048;73.268;2024-02-21T09:38:07;103025.59;;;-18.19;53.60
59168;BME280;70412;55.048;73.268;2024-02-21T09:41:16;103038.53;;;-18.14;54.02
59168;BME280;70412;55.048;73.268;2024-02-21T09:44:24;103036.28;;;-18.30;53.71
59168;BME280;70412;55.048;73.268;2024-02-21T09:47:44;103033.38;;;-18.35;54.09
59168;BME280;70412;55.048;73.268;2024-02-21T09:50:51;103029.47;;;-18.22;54.46
59168;BME280;70412;55.048;73.268;2024-02-21T09:53:54;103022.22;;;-18.19;54.48
59168;BME280;70412;55.048;73.268;2024-02-21T09:57:09;103033.84;;;-18.20;54.47
59168;BME280;70412;55.048;73.268;2024-02-21T10:00:12;103023.91;;;-18.28;54.26
59168;BME280;70412;55.048;73.268;2024-02-21T10:03:23;103018.16;;;-18.09;54.93
59168;BME280;70412;55.048;73.268;2024-02-21T10:06:26;103034.81;;;-17.90;54.66
59168;BME280;70412;55.048;73.268;2024-02-21T10:09:41;103038.13;;;-18.00;54.26
59168;BME280;70412;55.048;73.268;2024-02-21T10:12:51;103038.13;;;-18.19;54.14
59168;BME280;70412;55.048;73.268;2024-02-21T10:16:03;103031.69;;;-18.25;54.31
59168;BME280;70412;55.048;73.268;2024-02-21T10:19:06;103035.41;;;-18.30;54.31
59168;BME280;70412;55.048;73.268;2024-02-21T10:22:09;103043.47;;;-18.43;54.21
59168;BME280;70412;55.048;73.268;2024-02-21T10:25:13;103041.41;;;-18.47;54.73
59168;BME280;70412;55.048;73.268;2024-02-21T10:28:15;103042.88;;;-18.49;54.75
59168;BME280;70412;55.048;73.268;2024-02-21T10:31:26;103045.13;;;-18.52;55.28
59168;BME280;70412;55.048;73.268;2024-02-21T10:34:29;103046.47;;;-18.56;54.95
59168;BME280;70412;55.048;73.268;2024-02-21T10:37:31;103044.38;;;-18.51;54.86
59168;BME280;70412;55.048;73.268;2024-02-21T10:40:34;103052.63;;;-18.52;54.90
59168;BME280;70412;55.048;73.268;2024-02-21T10:43:40;103043.69;;;-18.78;54.35
59168;BME280;70412;55.048;73.268;2024-02-21T10:46:43;103050.66;;;-18.92;54.61
59168;BME280;70412;55.048;73.268;2024-02-21T10:49:46;103048.19;;;-19.01;55.19
59168;BME280;70412;55.048;73.268;2024-02-21T10:53:02;103042.50;;;-19.09;55.39
59168;BME280;70412;55.048;73.268;2024-02-21T10:56:31;103046.63;;;-19.09;55.30
59168;BME280;70412;55.048;73.268;2024-02-21T10:59:37;103044.09;;;-19.09;55.36
59168;BME280;70412;55.048;73.268;2024-02-21T11:02:41;103045.75;;;-19.18;55.20
59168;BME280;70412;55.048;73.268;2024-02-21T11:05:45;103049.78;;;-19.38;55.05
59168;BME280;70412;55.048;73.268;2024-02-21T11:09:00;103038.72;;;-19.31;56.07
59168;BME280;70412;55.048;73.268;2024-02-21T11:12:06;103040.06;;;-19.35;56.21
59168;BME280;70412;55.048;73.268;2024-02-21T11:15:09;103022.59;;;-19.43;56.03
59168;BME280;70412;55.048;73.268;2024-02-21T11:18:23;103052.56;;;-19.35;56.15
59168;BME280;70412;55.048;73.268;2024-02-21T11:21:33;103002.50;;;-19.62;56.40
59168;BME280;70412;55.048;73.268;2024-02-21T11:24:37;103031.84;;;-19.51;56.39
59168;BME280;70412;55.048;73.268;2024-02-21T11:27:46;103034.88;;;-19.72;56.18
59168;BME280;70412;55.048;73.268;2024-02-21T11:31:09;103001.38;;;-20.18;56.19
59168;BME280;70412;55.048;73.268;2024-02-21T11:34:13;103040.63;;;-20.08;56.20
59168;BME280;70412;55.048;73.268;2024-02-21T11:37:16;103028.13;;;-20.25;56.29
59168;BME280;70412;55.048;73.268;2024-02-21T11:40:18;103037.38;;;-20.24;56.40
59168;BME280;70412;55.048;73.268;2024-02-21T11:43:21;103035.47;;;-20.27;56.33
59168;BME280;70412;55.048;73.268;2024-02-21T11:46:26;103034.59;;;-20.27;56.65
59168;BME280;70412;55.048;73.268;2024-02-21T11:49:29;103015.63;;;-20.42;56.57
59168;BME280;70412;55.048;73.268;2024-02-21T11:52:32;103029.72;;;-20.43;57.15
59168;BME280;70412;55.048;73.268;2024-02-21T11:55:34;103027.22;;;-20.43;57.00
59168;BME280;70412;55.048;73.268;2024-02-21T11:58:37;103029.72;;;-20.17;57.43
59168;BME280;70412;55.048;73.268;2024-02-21T12:01:39;103030.81;;;-19.00;56.81
59168;BME280;70412;55.048;73.268;2024-02-21T12:04:42;103023.16;;;-18.46;54.96
59168;BME280;70412;55.048;73.268;2024-02-21T12:08:06;103034.81;;;-18.28;54.38
59168;BME280;70412;55.048;73.268;2024-02-21T12:11:22;103029.09;;;-18.54;53.72
59168;BME280;70412;55.048;73.268;2024-02-21T12:14:25;103003.28;;;-19.63;53.54
59168;BME280;70412;55.048;73.268;2024-02-21T12:17:40;103034.28;;;-20.48;54.58
59168;BME280;70412;55.048;73.268;2024-02-21T12:20:43;103033.53;;;-21.05;55.71
59168;BME280;70412;55.048;73.268;2024-02-21T12:23:48;103026.44;;;-21.51;57.09
59168;BME280;70412;55.048;73.268;2024-02-21T12:26:54;103026.94;;;-21.87;57.82
59168;BME280;70412;55.048;73.268;2024-02-21T12:29:57;103026.19;;;-22.10;58.61
59168;BME280;70412;55.048;73.268;2024-02-21T12:32:59;103020.22;;;-22.28;58.65
59168;BME280;70412;55.048;73.268;2024-02-21T12:36:03;102964.16;;;-22.80;59.24
59168;BME280;70412;55.048;73.268;2024-02-21T12:39:06;103025.59;;;-22.64;59.48
59168;BME280;70412;55.048;73.268;2024-02-21T12:42:26;102987.44;;;-23.03;60.08
59168;BME280;70412;55.048;73.268;2024-02-21T12:45:31;103013.44;;;-22.92;60.82
59168;BME280;70412;55.048;73.268;2024-02-21T12:48:47;103017.53;;;-23.08;60.75
59168;BME280;70412;55.048;73.268;2024-02-21T12:51:50;103022.00;;;-23.13;61.15
59168;BME280;70412;55.048;73.268;2024-02-21T12:54:53;103020.44;;;-23.19;61.33
59168;BME280;70412;55.048;73.268;2024-02-21T12:58:03;103027.09;;;-23.27;61.66
59168;BME280;70412;55.048;73.268;2024-02-21T13:01:09;103002.69;;;-23.38;61.85
59168;BME280;70412;55.048;73.268;2024-02-21T13:04:11;103020.56;;;-23.34;62.00
59168;BME280;70412;55.048;73.268;2024-02-21T13:07:14;103026.09;;;-23.36;62.42
59168;BME280;70412;55.048;73.268;2024-02-21T13:10:16;103022.00;;;-23.36;63.20
59168;BME280;70412;55.048;73.268;2024-02-21T13:13:20;103013.00;;;-23.42;62.73
59168;BME280;70412;55.048;73.268;2024-02-21T13:16:35;102974.88;;;-23.66;63.65
59168;BME280;70412;55.048;73.268;2024-02-21T13:19:41;103017.16;;;-23.50;62.96
59168;BME280;70412;55.048;73.268;2024-02-21T13:22:43;103017.84;;;-23.51;63.84
59168;BME280;70412;55.048;73.268;2024-02-21T13:25:46;103011.28;;;-23.50;63.72
59168;BME280;70412;55.048;73.268;2024-02-21T13:29:05;103001.81;;;-23.62;63.59
59168;BME280;70412;55.048;73.268;2024-02-21T13:32:08;103013.16;;;-23.64;64.40
59168;BME280;70412;55.048;73.268;2024-02-21T13:35:15;102991.09;;;-23.76;64.55
59168;BME280;70412;55.048;73.268;2024-02-21T13:38:18;102975.75;;;-23.88;64.68
59168;BME280;70412;55.048;73.268;2024-02-21T13:41:34;103007.56;;;-23.77;64.48
59168;BME280;70412;55.048;73.268;2024-02-21T13:44:37;103003.75;;;-23.82;64.80
59168;BME280;70412;55.048;73.268;2024-02-21T13:47:57;103003.22;;;-23.87;65.39
59168;BME280;70412;55.048;73.268;2024-02-21T13:51:01;102999.34;;;-23.92;65.24
59168;BME280;70412;55.048;73.268;2024-02-21T13:54:07;102994.56;;;-23.90;65.66
59168;BME280;70412;55.048;73.268;2024-02-21T13:57:11;102986.78;;;-23.93;65.33
59168;BME280;70412;55.048;73.268;2024-02-21T14:00:33;102999.53;;;-23.90;65.91
59168;BME280;70412;55.048;73.268;2024-02-21T14:03:38;102990.69;;;-23.95;65.88
59168;BME280;70412;55.048;73.268;2024-02-21T14:06:40;102985.03;;;-23.94;66.10
59168;BME280;70412;55.048;73.268;2024-02-21T14:09:46;102987.34;;;-23.96;66.61
59168;BME280;70412;55.048;73.268;2024-02-21T14:12:49;102974.63;;;-24.06;66.19
59168;BME280;70412;55.048;73.268;2024-02-21T14:15:52;102977.59;;;-24.01;66.24
59168;BME280;70412;55.048;73.268;2024-02-21T14:18:54;102956.97;;;-24.16;66.68
59168;BME280;70412;55.048;73.268;2024-02-21T14:21:57;102972.75;;;-24.15;66.86
59168;BME280;70412;55.048;73.268;2024-02-21T14:25:00;102964.59;;;-24.22;67.16
59168;BME280;70412;55.048;73.268;2024-02-21T14:28:03;102956.13;;;-24.24;66.70
59168;BME280;70412;55.048;73.268;2024-02-21T14:31:06;102956.78;;;-24.18;67.38
59168;BME280;70412;55.048;73.268;2024-02-21T14:34:11;102957.16;;;-24.22;67.33
59168;BME280;70412;55.048;73.268;2024-02-21T14:37:13;102950.28;;;-24.24;67.49
59168;BME280;70412;55.048;73.268;2024-02-21T14:40:15;102953.97;;;-24.21;67.61
59168;BME280;70412;55.048;73.268;2024-02-21T14:43:18;102912.69;;;-24.50;67.88
59168;BME280;70412;55.048;73.268;2024-02-21T14:46:23;102946.59;;;-24.28;67.96
59168;BME280;70412;55.048;73.268;2024-02-21T14:49:25;102943.44;;;-24.34;67.81
59168;BME280;70412;55.048;73.268;2024-02-21T14:52:29;102944.13;;;-24.35;67.62
59168;BME280;70412;55.048;73.268;2024-02-21T14:55:32;102939.16;;;-24.35;68.42
59168;BME280;70412;55.048;73.268;2024-02-21T14:58:34;102935.09;;;-24.34;68.52
59168;BME280;70412;55.048;73.268;2024-02-21T15:01:37;102944.13;;;-24.35;67.82
59168;BME280;70412;55.048;73.268;2024-02-21T15:04:42;102910.28;;;-24.57;68.12
59168;BME280;70412;55.048;73.268;2024-02-21T15:07:45;102935.69;;;-24.51;68.17
59168;BME280;70412;55.048;73.268;2024-02-21T15:10:47;102924.44;;;-24.56;68.51
59168;BME280;70412;55.048;73.268;2024-02-21T15:13:52;102922.97;;;-24.54;69.11
59168;BME280;70412;55.048;73.268;2024-02-21T15:16:55;102929.66;;;-24.46;69.19
59168;BME280;70412;55.048;73.268;2024-02-21T15:19:59;102924.38;;;-24.49;69.26
59168;BME280;70412;55.048;73.268;2024-02-21T15:23:03;102878.50;;;-24.75;69.71
59168;BME280;70412;55.048;73.268;2024-02-21T15:26:07;102921.91;;;-24.49;69.73
59168;BME280;70412;55.048;73.268;2024-02-21T15:29:09;102914.09;;;-24.52;69.48
59168;BME280;70412;55.048;73.268;2024-02-21T15:32:12;102921.63;;;-24.59;69.50
59168;BME280;70412;55.048;73.268;2024-02-21T15:35:14;102902.53;;;-24.67;70.47
59168;BME280;70412;55.048;73.268;2024-02-21T15:38:17;102906.75;;;-24.59;70.49
59168;BME280;70412;55.048;73.268;2024-02-21T15:41:21;102917.53;;;-24.59;70.31
59168;BME280;70412;55.048;73.268;2024-02-21T15:44:24;102872.50;;;-24.85;70.29